Aviation Digital Data Service (ADDS)

Output produced by METARs form (1538 UTC 29 April 2017)
found at http://aviationweather.gov/adds/metars/
 
KMSS 291136Z 2912/3012 24011KT P6SM BKN080 OVC100 
     FM291500 27013G21KT P6SM BKN050 
     FM300100 34008KT P6SM SCT250 
     FM300800 VRB04KT P6SM BKN110